Terminal Aerodrome Forecast
Issued by NWS

Home | Current Version | Previous Version | Text Only | Print | Product List | Glossary On
Versions: 1 2 3 4 5 6 7 8 9 10 11 12 13 14 15 16 17
315
FTUS43 KIND 300816 AAB
TAFHUF
TAF AMD
KHUF 300816Z 3008/0106 01006KT P6SM SCT006 OVC015
      TEMPO 3008/3010 5SM -RA BR BKN006 OVC015
     FM301000 02007KT P6SM BKN015 OVC040
      TEMPO 3010/3014 4SM BR BKN006 OVC015
     FM301700 06006KT 6SM -SHRA OVC040 PROB30 3017/3023 4SM TS
      OVC025CB
     FM010000 09005KT P6SM BKN060=

USA.gov is the U.S. government's official web portal to all federal, state and local government web resources and services.